Destiny — ZCTE3 — position and weather

sailwx.info

Track history (hours):
 
Tides and Currents Weather Stations Pressure Air Temp Water Temp Dewpoint Dewpoint Depression Visibility Wind Speed Wind Dir Waves Ship Positions

Destiny

Last reported at 2016-Sep-25 17:24 UTC. Time now 2016-Sep-25 20:52 UTC.
Position N 43°35' E 007°08'.

Length 37 m; draft 2.2 m.

Type: Pleasure craft. MMSI: 319864000.

Date/timePositionNaut miles runAvg speedWind from/ knotsBaromVisibWave heightAir tempDewpointWater temp
2016-Sep-25 17:24N 43°35' E 007°08'0 0.0
2016-Sep-25 16:30N 43°35' E 007°08'0 0.0
2016-Sep-25 15:18N 43°35' E 007°08'0 0.0
2016-Sep-25 14:30N 43°35' E 007°08'0 0.0
2016-Sep-25 12:30N 43°35' E 007°08'0 0.0
2016-Sep-25 11:30N 43°35' E 007°08'0 0.0
2016-Sep-25 10:30N 43°35' E 007°08'0 0.0
2016-Sep-25 09:30N 43°35' E 007°08'0 0.0
2016-Sep-25 07:30N 43°35' E 007°08'0 0.0
2016-Sep-25 04:30N 43°35' E 007°08'0 0.0
2016-Sep-25 00:30N 43°35' E 007°08'0 0.0
2016-Sep-24 22:30N 43°35' E 007°08'0 0.0
2016-Sep-24 21:24N 43°35' E 007°08'0 0.0
2016-Sep-24 19:30N 43°35' E 007°08'0 0.0
2016-Sep-24 18:30N 43°35' E 007°08'0 0.0
2016-Sep-24 17:30N 43°35' E 007°08'0 0.0
2016-Sep-24 16:30N 43°35' E 007°08'0 0.0
2016-Sep-24 14:30N 43°35' E 007°08'0 0.0
2016-Sep-24 12:30N 43°35' E 007°08'0 0.0
2016-Sep-24 10:30N 43°35' E 007°08'0 0.0
2016-Sep-24 09:30N 43°35' E 007°08'0 0.0
2016-Sep-24 03:30N 43°35' E 007°08'0 0.0
2016-Sep-24 02:30N 43°35' E 007°08'0 0.0
2016-Sep-24 01:24N 43°35' E 007°08'0 0.0
2016-Sep-24 00:30N 43°35' E 007°08'0 0.0
2016-Sep-23 19:30N 43°35' E 007°08'0 0.0
2016-Sep-23 17:30N 43°35' E 007°08'0 0.0
2016-Sep-23 16:30N 43°35' E 007°08'0 0.0
2016-Sep-23 15:30N 43°35' E 007°08'0 0.0
2016-Sep-23 13:30N 43°35' E 007°08'0 0.0
2016-Sep-23 09:24N 43°35' E 007°08'0 0.0
2016-Sep-23 06:30N 43°35' E 007°08'0 0.0
2016-Sep-23 04:24N 43°35' E 007°08'0 0.0
2016-Sep-23 03:30N 43°35' E 007°08'0 0.0
2016-Sep-23 02:30N 43°35' E 007°08'0 0.0
2016-Sep-23 01:30N 43°35' E 007°08'0 0.0
2016-Sep-23 00:30N 43°35' E 007°08'0 0.0
2016-Sep-22 23:30N 43°35' E 007°08'0 0.0
2016-Sep-22 20:30N 43°35' E 007°08'0 0.0
2016-Sep-22 12:30N 43°35' E 007°08'0 0.0
2016-Sep-22 04:30N 43°35' E 007°08'0 0.0
2016-Sep-22 03:30N 43°35' E 007°08'0 0.0
2016-Sep-22 00:30N 43°35' E 007°08'0 0.0
2016-Sep-21 23:30N 43°35' E 007°08'0 0.0
2016-Sep-21 22:30N 43°35' E 007°08'0 0.0
2016-Sep-21 19:30N 43°35' E 007°08'0 0.0
2016-Sep-21 16:24N 43°35' E 007°08'0 0.0
2016-Sep-21 09:30N 43°35' E 007°08'0 0.0
2016-Sep-21 08:30N 43°35' E 007°08'0 0.0
2016-Sep-21 03:30N 43°35' E 007°08'0 0.0
2016-Sep-21 02:30N 43°35' E 007°08'0 0.0
2016-Sep-20 17:24N 43°35' E 007°08'5 1.6
2016-Sep-20 14:33N 43°31' E 007°07'3 3.2
2016-Sep-20 13:33N 43°34' E 007°06'5 1.5
2016-Sep-20 10:24N 43°30' E 007°02'6 3.4
2016-Sep-20 08:31N 43°35' E 007°08'0 0.0
2016-Sep-20 07:31N 43°35' E 007°08'0 0.0
2016-Sep-20 06:31N 43°35' E 007°08'0 0.0
2016-Sep-20 02:31N 43°35' E 007°08'0 0.0
2016-Sep-19 23:31N 43°35' E 007°08'0 0.0
2016-Sep-19 19:31N 43°35' E 007°08'0 0.0
2016-Sep-19 18:31N 43°35' E 007°08'0 0.0
2016-Sep-19 16:23N 43°35' E 007°08'0 0.0
2016-Sep-19 14:23N 43°35' E 007°08'0 0.0
2016-Sep-19 13:29N 43°35' E 007°08'0 0.0
2016-Sep-19 12:34N 43°35' E 007°08'0 0.0
2016-Sep-19 11:34N 43°35' E 007°08'1 0.3
2016-Sep-19 09:30N 43°35' E 007°08'0 0.0
2016-Sep-19 07:30N 43°35' E 007°08'0 0.0
2016-Sep-19 06:30N 43°35' E 007°08'0 0.0
2016-Sep-19 03:24N 43°35' E 007°08'0 0.0
2016-Sep-19 02:30N 43°35' E 007°08'0 0.0
2016-Sep-19 00:30N 43°35' E 007°08'0 0.0
2016-Sep-18 19:30N 43°35' E 007°08'0 0.0
2016-Sep-18 15:30N 43°35' E 007°08'0 0.0
2016-Sep-18 14:30N 43°35' E 007°08'0 0.0
2016-Sep-18 10:30N 43°35' E 007°08'0 0.0
2016-Sep-18 09:30N 43°35' E 007°08'0 0.0
2016-Sep-18 02:30N 43°35' E 007°08'0 0.0
2016-Sep-18 01:30N 43°35' E 007°08'0 0.0
2016-Sep-18 00:30N 43°35' E 007°08'0 0.0
2016-Sep-17 22:30N 43°35' E 007°08'0 0.0
2016-Sep-17 21:30N 43°35' E 007°08'0 0.0
2016-Sep-17 20:30N 43°35' E 007°08'0 0.0
2016-Sep-17 19:06N 43°35' E 007°08'0 0.0
2016-Sep-17 13:24N 43°35' E 007°08'0 0.0
2016-Sep-17 12:30N 43°35' E 007°08'0 0.0
2016-Sep-17 10:30N 43°35' E 007°08'0 0.0
2016-Sep-17 09:30N 43°35' E 007°08'0 0.0
2016-Sep-17 08:30N 43°35' E 007°08'0 0.0
2016-Sep-17 07:30N 43°35' E 007°08'0 0.0
2016-Sep-17 05:30N 43°35' E 007°08'0 0.0
2016-Sep-17 04:30N 43°35' E 007°08'0 0.0
2016-Sep-17 00:30N 43°35' E 007°08'0 0.0
2016-Sep-16 17:30N 43°35' E 007°08'0 0.0
2016-Sep-16 15:24N 43°35' E 007°08'0 0.0
2016-Sep-16 12:30N 43°35' E 007°08'0 0.0
2016-Sep-16 09:30N 43°35' E 007°08'0 0.0
2016-Sep-16 07:30N 43°35' E 007°08'0 0.0
2016-Sep-16 03:30N 43°35' E 007°08'0 0.0
2016-Sep-16 02:30N 43°35' E 007°08'0 0.0
2016-Sep-16 00:30N 43°35' E 007°08'0 0.0
2016-Sep-15 22:30N 43°35' E 007°08'0 0.0
2016-Sep-15 21:30N 43°35' E 007°08'0 0.0
2016-Sep-15 20:30N 43°35' E 007°08'0 0.0
2016-Sep-15 18:30N 43°35' E 007°08'  
Track history (hours):
 
Tides and Currents Weather Stations Pressure Air Temp Water Temp Dewpoint Dewpoint Depression Visibility Wind Speed Wind Dir Waves Ship Positions

Destiny

Last reported at 2016-Sep-25 17:24 UTC. Time now 2016-Sep-25 20:52 UTC.
Position N 43°35' E 007°08'.

Length 37 m; draft 2.2 m.

Type: Pleasure craft. MMSI: 319864000.

Date/timePositionNaut miles runAvg speedWind from/ knotsBaromVisibWave heightAir tempDewpointWater temp
2016-Sep-25 17:24N 43°35' E 007°08'0 0.0
2016-Sep-25 16:30N 43°35' E 007°08'0 0.0
2016-Sep-25 15:18N 43°35' E 007°08'0 0.0
2016-Sep-25 14:30N 43°35' E 007°08'0 0.0
2016-Sep-25 12:30N 43°35' E 007°08'0 0.0
2016-Sep-25 11:30N 43°35' E 007°08'0 0.0
2016-Sep-25 10:30N 43°35' E 007°08'0 0.0
2016-Sep-25 09:30N 43°35' E 007°08'0 0.0
2016-Sep-25 07:30N 43°35' E 007°08'0 0.0
2016-Sep-25 04:30N 43°35' E 007°08'0 0.0
2016-Sep-25 00:30N 43°35' E 007°08'0 0.0
2016-Sep-24 22:30N 43°35' E 007°08'0 0.0
2016-Sep-24 21:24N 43°35' E 007°08'0 0.0
2016-Sep-24 19:30N 43°35' E 007°08'0 0.0
2016-Sep-24 18:30N 43°35' E 007°08'0 0.0
2016-Sep-24 17:30N 43°35' E 007°08'0 0.0
2016-Sep-24 16:30N 43°35' E 007°08'0 0.0
2016-Sep-24 14:30N 43°35' E 007°08'0 0.0
2016-Sep-24 12:30N 43°35' E 007°08'0 0.0
2016-Sep-24 10:30N 43°35' E 007°08'0 0.0
2016-Sep-24 09:30N 43°35' E 007°08'0 0.0
2016-Sep-24 03:30N 43°35' E 007°08'0 0.0
2016-Sep-24 02:30N 43°35' E 007°08'0 0.0
2016-Sep-24 01:24N 43°35' E 007°08'0 0.0
2016-Sep-24 00:30N 43°35' E 007°08'0 0.0
2016-Sep-23 19:30N 43°35' E 007°08'0 0.0
2016-Sep-23 17:30N 43°35' E 007°08'0 0.0
2016-Sep-23 16:30N 43°35' E 007°08'0 0.0
2016-Sep-23 15:30N 43°35' E 007°08'0 0.0
2016-Sep-23 13:30N 43°35' E 007°08'0 0.0
2016-Sep-23 09:24N 43°35' E 007°08'0 0.0
2016-Sep-23 06:30N 43°35' E 007°08'0 0.0
2016-Sep-23 04:24N 43°35' E 007°08'0 0.0
2016-Sep-23 03:30N 43°35' E 007°08'0 0.0
2016-Sep-23 02:30N 43°35' E 007°08'0 0.0
2016-Sep-23 01:30N 43°35' E 007°08'0 0.0
2016-Sep-23 00:30N 43°35' E 007°08'0 0.0
2016-Sep-22 23:30N 43°35' E 007°08'0 0.0
2016-Sep-22 20:30N 43°35' E 007°08'0 0.0
2016-Sep-22 12:30N 43°35' E 007°08'0 0.0
2016-Sep-22 04:30N 43°35' E 007°08'0 0.0
2016-Sep-22 03:30N 43°35' E 007°08'0 0.0
2016-Sep-22 00:30N 43°35' E 007°08'0 0.0
2016-Sep-21 23:30N 43°35' E 007°08'0 0.0
2016-Sep-21 22:30N 43°35' E 007°08'0 0.0
2016-Sep-21 19:30N 43°35' E 007°08'0 0.0
2016-Sep-21 16:24N 43°35' E 007°08'0 0.0
2016-Sep-21 09:30N 43°35' E 007°08'0 0.0
2016-Sep-21 08:30N 43°35' E 007°08'0 0.0
2016-Sep-21 03:30N 43°35' E 007°08'0 0.0
2016-Sep-21 02:30N 43°35' E 007°08'0 0.0
2016-Sep-20 17:24N 43°35' E 007°08'5 1.6
2016-Sep-20 14:33N 43°31' E 007°07'3 3.2
2016-Sep-20 13:33N 43°34' E 007°06'5 1.5
2016-Sep-20 10:24N 43°30' E 007°02'6 3.4
2016-Sep-20 08:31N 43°35' E 007°08'0 0.0
2016-Sep-20 07:31N 43°35' E 007°08'0 0.0
2016-Sep-20 06:31N 43°35' E 007°08'0 0.0
2016-Sep-20 02:31N 43°35' E 007°08'0 0.0
2016-Sep-19 23:31N 43°35' E 007°08'0 0.0
2016-Sep-19 19:31N 43°35' E 007°08'0 0.0
2016-Sep-19 18:31N 43°35' E 007°08'0 0.0
2016-Sep-19 16:23N 43°35' E 007°08'0 0.0
2016-Sep-19 14:23N 43°35' E 007°08'0 0.0
2016-Sep-19 13:29N 43°35' E 007°08'0 0.0
2016-Sep-19 12:34N 43°35' E 007°08'0 0.0
2016-Sep-19 11:34N 43°35' E 007°08'1 0.3
2016-Sep-19 09:30N 43°35' E 007°08'0 0.0
2016-Sep-19 07:30N 43°35' E 007°08'0 0.0
2016-Sep-19 06:30N 43°35' E 007°08'0 0.0
2016-Sep-19 03:24N 43°35' E 007°08'0 0.0
2016-Sep-19 02:30N 43°35' E 007°08'0 0.0
2016-Sep-19 00:30N 43°35' E 007°08'0 0.0
2016-Sep-18 19:30N 43°35' E 007°08'0 0.0
2016-Sep-18 15:30N 43°35' E 007°08'0 0.0
2016-Sep-18 14:30N 43°35' E 007°08'0 0.0
2016-Sep-18 10:30N 43°35' E 007°08'0 0.0
2016-Sep-18 09:30N 43°35' E 007°08'0 0.0
2016-Sep-18 02:30N 43°35' E 007°08'0 0.0
2016-Sep-18 01:30N 43°35' E 007°08'0 0.0
2016-Sep-18 00:30N 43°35' E 007°08'0 0.0
2016-Sep-17 22:30N 43°35' E 007°08'0 0.0
2016-Sep-17 21:30N 43°35' E 007°08'0 0.0
2016-Sep-17 20:30N 43°35' E 007°08'0 0.0
2016-Sep-17 19:06N 43°35' E 007°08'0 0.0
2016-Sep-17 13:24N 43°35' E 007°08'0 0.0
2016-Sep-17 12:30N 43°35' E 007°08'0 0.0
2016-Sep-17 10:30N 43°35' E 007°08'0 0.0
2016-Sep-17 09:30N 43°35' E 007°08'0 0.0
2016-Sep-17 08:30N 43°35' E 007°08'0 0.0
2016-Sep-17 07:30N 43°35' E 007°08'0 0.0
2016-Sep-17 05:30N 43°35' E 007°08'0 0.0
2016-Sep-17 04:30N 43°35' E 007°08'0 0.0
2016-Sep-17 00:30N 43°35' E 007°08'0 0.0
2016-Sep-16 17:30N 43°35' E 007°08'0 0.0
2016-Sep-16 15:24N 43°35' E 007°08'0 0.0
2016-Sep-16 12:30N 43°35' E 007°08'0 0.0
2016-Sep-16 09:30N 43°35' E 007°08'0 0.0
2016-Sep-16 07:30N 43°35' E 007°08'0 0.0
2016-Sep-16 03:30N 43°35' E 007°08'0 0.0
2016-Sep-16 02:30N 43°35' E 007°08'0 0.0
2016-Sep-16 00:30N 43°35' E 007°08'0 0.0
2016-Sep-15 22:30N 43°35' E 007°08'0 0.0
2016-Sep-15 21:30N 43°35' E 007°08'0 0.0
2016-Sep-15 20:30N 43°35' E 007°08'0 0.0
2016-Sep-15 18:30N 43°35' E 007°08'  

Dump ship's entire track history